createdAt,value
2022-10-06T00:00:24.242Z,9.155556
2022-10-06T00:05:27.341Z,9.160000
2022-10-06T00:10:30.582Z,9.100000
2022-10-06T00:15:21.485Z,9.100000
2022-10-06T00:20:25.149Z,9.158333
2022-10-06T00:25:28.230Z,9.220000
2022-10-06T00:30:19.505Z,9.244444
2022-10-06T00:35:22.369Z,9.200000
2022-10-06T00:40:25.441Z,9.258333
2022-10-06T00:45:30.221Z,9.433333
2022-10-06T00:50:19.650Z,9.500000
2022-10-06T00:55:22.868Z,9.423077
2022-10-06T01:00:25.910Z,9.436364
2022-10-06T01:05:30.027Z,9.500000
2022-10-06T01:10:20.071Z,9.555556
2022-10-06T01:15:23.138Z,9.575000
2022-10-06T01:20:26.594Z,9.500000
2022-10-06T01:25:29.801Z,9.408333
2022-10-06T01:30:20.801Z,9.400000
2022-10-06T01:35:24.022Z,9.400000
2022-10-06T01:40:27.113Z,9.400000
2022-10-06T01:45:30.215Z,9.446154
2022-10-06T01:50:21.410Z,9.500000
2022-10-06T01:55:24.335Z,9.566667
2022-10-06T02:00:30.378Z,9.509091
2022-10-06T02:05:31.386Z,9.555556
2022-10-06T02:10:21.557Z,9.611111
2022-10-06T02:15:24.947Z,9.700000
2022-10-06T02:20:30.433Z,9.690000
2022-10-06T02:25:19.411Z,9.600000
2022-10-06T02:30:22.498Z,9.600000
2022-10-06T02:35:18.826Z,9.600000
2022-10-06T02:40:18.798Z,9.600000
2022-10-06T02:45:19.759Z,9.700000
2022-10-06T02:50:18.824Z,9.790000
2022-10-06T02:55:18.811Z,9.800000
2022-10-06T03:00:20.294Z,9.800000
2022-10-06T03:05:20.185Z,9.800000
2022-10-06T03:10:18.745Z,9.800000
2022-10-06T03:15:18.827Z,9.800000
2022-10-06T03:20:18.884Z,9.800000
2022-10-06T03:25:20.604Z,9.760000
2022-10-06T03:30:18.874Z,9.800000
2022-10-06T03:35:19.250Z,9.900000
2022-10-06T03:40:19.371Z,10.000000
2022-10-06T03:45:21.093Z,10.000000
2022-10-06T03:50:24.184Z,10.000000
2022-10-06T03:55:19.204Z,10.000000
2022-10-06T04:00:19.216Z,10.000000
2022-10-06T04:05:21.442Z,10.000000
2022-10-06T04:10:19.298Z,10.000000
2022-10-06T04:15:19.185Z,9.981818
2022-10-06T04:20:19.169Z,9.900000
2022-10-06T04:25:22.256Z,9.900000
2022-10-06T04:30:19.222Z,9.977778
2022-10-06T04:35:28.451Z,10.180000
2022-10-06T04:40:19.642Z,10.411111
2022-10-06T04:45:22.649Z,10.666667
2022-10-06T04:50:19.731Z,10.900000
2022-10-06T04:55:32.481Z,11.111111
2022-10-06T05:00:19.880Z,11.400000
2022-10-06T05:05:22.961Z,11.654545
2022-10-06T05:10:19.672Z,11.966667
2022-10-06T05:15:19.905Z,12.176923
2022-10-06T05:20:20.459Z,12.345455
2022-10-06T05:25:23.586Z,12.533333
2022-10-06T05:30:20.620Z,12.833333
2022-10-06T05:35:19.711Z,13.070000
2022-10-06T05:40:20.758Z,13.341667
2022-10-06T05:45:19.687Z,13.509091
2022-10-06T05:50:20.791Z,13.645455
2022-10-06T05:55:19.743Z,13.861538
2022-10-06T06:00:21.243Z,14.118182
2022-10-06T06:05:19.622Z,14.408333
2022-10-06T06:10:27.703Z,14.711111
2022-10-06T06:15:19.706Z,14.954545
2022-10-06T06:20:21.744Z,15.245455
2022-10-06T06:25:24.972Z,15.481818
2022-10-06T06:30:19.734Z,15.800000
2022-10-06T06:35:19.634Z,16.054545
2022-10-06T06:40:22.281Z,16.244444
2022-10-06T06:45:25.683Z,16.380000
2022-10-06T06:50:19.722Z,16.700000
2022-10-06T06:55:19.730Z,17.058333
2022-10-06T07:00:22.603Z,17.433333
2022-10-06T07:05:25.796Z,17.558333
2022-10-06T07:10:19.676Z,17.700000
2022-10-06T07:15:19.919Z,17.822222
2022-10-06T07:20:23.396Z,17.927273
2022-10-06T07:25:25.073Z,18.109091
2022-10-06T07:30:29.327Z,18.541667
2022-10-06T07:35:20.469Z,18.700000
2022-10-06T07:40:23.568Z,18.688889
2022-10-06T07:45:20.163Z,18.536364
2022-10-06T07:50:20.416Z,18.409091
2022-10-06T07:55:20.704Z,18.510000
2022-10-06T08:00:20.261Z,18.600000
2022-10-06T08:05:20.139Z,18.491667
2022-10-06T08:10:32.107Z,18.222222
2022-10-06T08:15:21.223Z,17.858333
2022-10-06T08:20:20.519Z,17.527273
2022-10-06T08:25:20.268Z,17.345455
2022-10-06T08:30:20.092Z,17.370000
2022-10-06T08:35:22.128Z,17.591667
2022-10-06T08:40:20.427Z,17.642857
2022-10-06T08:45:20.090Z,17.600000
2022-10-06T08:50:19.226Z,17.600000
2022-10-06T08:55:22.564Z,17.780000
2022-10-06T09:00:22.178Z,17.872727
2022-10-06T09:05:20.341Z,17.750000
2022-10-06T09:10:20.182Z,17.670000
2022-10-06T09:15:22.684Z,17.600000
2022-10-06T09:20:20.104Z,17.600000
2022-10-06T09:25:20.157Z,17.511111
2022-10-06T09:30:32.368Z,17.400000
2022-10-06T09:35:20.174Z,17.381818
2022-10-06T09:40:20.204Z,17.400000
2022-10-06T09:45:32.136Z,17.491667
2022-10-06T09:50:20.434Z,17.511111
2022-10-06T09:55:20.134Z,17.545455
2022-10-06T10:00:20.343Z,17.541667
2022-10-06T10:05:20.287Z,17.700000
2022-10-06T10:10:20.914Z,17.890000
2022-10-06T10:15:20.055Z,18.070000
2022-10-06T10:20:20.127Z,18.100000
2022-10-06T10:25:20.114Z,18.125000
2022-10-06T10:30:21.475Z,17.970000
2022-10-06T10:35:20.319Z,17.880000
2022-10-06T10:40:20.212Z,17.920000
2022-10-06T10:45:20.039Z,18.088889
2022-10-06T10:50:21.913Z,18.240000
2022-10-06T10:55:20.111Z,18.363636
2022-10-06T11:00:28.211Z,18.340000
2022-10-06T11:05:19.111Z,18.300000
2022-10-06T11:10:22.489Z,18.212500
2022-10-06T11:15:20.090Z,18.145455
2022-10-06T11:20:20.083Z,18.100000
2022-10-06T11:25:20.096Z,18.100000
2022-10-06T11:30:23.583Z,18.100000
2022-10-06T11:35:20.364Z,18.009091
2022-10-06T11:40:20.314Z,17.936364
2022-10-06T11:45:20.763Z,17.900000
2022-10-06T11:50:20.142Z,17.900000
2022-10-06T11:55:20.078Z,17.890909
2022-10-06T12:00:20.178Z,17.927273
2022-10-06T12:05:54.832Z,18.008333
2022-10-06T12:10:20.448Z,18.100000
2022-10-06T12:20:20.127Z,17.863636
2022-10-06T12:25:21.652Z,17.518182
2022-10-06T12:30:20.860Z,17.210000
2022-10-06T12:35:20.476Z,17.000000
2022-10-06T12:40:20.583Z,16.890909
2022-10-06T12:45:22.389Z,16.800000
2022-10-06T12:50:20.572Z,16.730000
2022-10-06T12:55:28.321Z,16.690000
2022-10-06T13:00:20.590Z,16.600000
2022-10-06T13:05:22.365Z,16.600000
2022-10-06T13:10:20.733Z,16.600000
2022-10-06T13:15:28.816Z,16.600000
2022-10-06T13:20:20.581Z,16.600000
2022-10-06T13:25:23.111Z,16.600000
2022-10-06T13:30:20.513Z,16.622222
2022-10-06T13:35:21.117Z,16.700000
2022-10-06T13:40:21.857Z,16.670000
2022-10-06T13:45:23.599Z,16.600000
2022-10-06T13:50:20.963Z,16.600000
2022-10-06T13:55:21.178Z,16.600000
2022-10-06T14:00:21.031Z,16.577778
2022-10-06T14:05:23.736Z,16.500000
2022-10-06T14:10:21.043Z,16.590909
2022-10-06T14:15:21.037Z,16.600000
2022-10-06T14:20:21.641Z,16.600000
2022-10-06T14:25:20.969Z,16.600000
2022-10-06T14:30:21.074Z,16.545455
2022-10-06T14:35:21.462Z,16.481818
2022-10-06T14:40:22.104Z,16.390000
2022-10-06T14:45:25.063Z,16.300000
2022-10-06T14:50:21.668Z,16.200000
2022-10-06T14:55:21.355Z,16.100000
2022-10-06T15:00:22.443Z,16.012500
2022-10-06T15:05:25.673Z,16.000000
2022-10-06T15:10:21.445Z,15.900000
2022-10-06T15:15:21.651Z,15.850000
2022-10-06T15:20:23.204Z,15.720000
2022-10-06T15:25:27.163Z,15.558333
2022-10-06T15:30:21.472Z,15.375000
2022-10-06T15:35:21.990Z,15.184615
2022-10-06T15:40:23.666Z,14.950000
2022-10-06T15:45:26.873Z,14.770000
2022-10-06T15:50:21.821Z,14.588889
2022-10-06T15:55:21.011Z,14.454545
2022-10-06T16:00:24.144Z,14.400000
2022-10-06T16:05:21.882Z,14.400000
2022-10-06T16:10:30.284Z,14.366667
2022-10-06T16:15:21.917Z,14.290000
2022-10-06T16:20:24.804Z,14.177778
2022-10-06T16:25:22.016Z,13.950000
2022-10-06T16:30:21.906Z,13.690909
2022-10-06T16:35:22.384Z,13.416667
2022-10-06T16:40:25.184Z,13.166667
2022-10-06T16:45:22.537Z,13.100000
2022-10-06T16:50:22.322Z,13.110000
2022-10-06T16:55:22.442Z,13.209091
2022-10-06T17:00:22.254Z,13.300000
2022-10-06T17:05:22.314Z,13.250000
2022-10-06T17:10:23.165Z,13.158333
2022-10-06T17:15:22.891Z,13.009091
2022-10-06T17:20:22.527Z,12.900000
2022-10-06T17:25:22.638Z,12.936364
2022-10-06T17:30:22.372Z,12.854545
2022-10-06T17:35:23.784Z,12.744444
2022-10-06T17:40:26.953Z,12.700000
2022-10-06T17:45:22.907Z,12.809091
2022-10-06T17:50:22.937Z,13.033333
2022-10-06T17:55:24.232Z,13.077778
2022-10-06T18:00:23.649Z,12.888889
2022-10-06T18:05:22.836Z,12.650000
2022-10-06T18:10:22.711Z,12.650000
2022-10-06T18:15:24.595Z,12.700000
2022-10-06T18:20:22.770Z,12.587500
2022-10-06T18:25:26.716Z,12.344444
2022-10-06T18:30:26.958Z,12.136364
2022-10-06T18:36:12.957Z,11.900000
2022-10-06T18:40:23.234Z,11.740000
2022-10-06T18:45:19.114Z,11.700000
2022-10-06T18:50:22.369Z,11.700000
2022-10-06T18:55:26.540Z,11.700000
2022-10-06T19:00:23.224Z,11.700000
2022-10-06T19:05:19.505Z,11.630000
2022-10-06T19:10:23.833Z,11.600000
2022-10-06T19:15:25.656Z,11.630000
2022-10-06T19:20:23.323Z,11.700000
2022-10-06T19:25:23.297Z,11.700000
2022-10-06T19:30:23.403Z,11.550000
2022-10-06T19:35:26.437Z,11.485714
2022-10-06T19:40:29.620Z,11.400000
2022-10-06T19:45:20.630Z,11.341667
2022-10-06T19:50:35.791Z,11.300000
2022-10-06T19:55:23.693Z,11.355556
2022-10-06T20:00:31.086Z,11.525000
2022-10-06T20:05:23.874Z,11.583333
2022-10-06T20:10:24.183Z,11.400000
2022-10-06T20:15:23.677Z,11.263636
2022-10-06T20:20:23.684Z,11.130000
2022-10-06T20:25:23.644Z,10.875000
2022-10-06T20:30:24.676Z,10.600000
2022-10-06T20:35:24.353Z,10.416667
2022-10-06T20:40:24.090Z,10.258333
2022-10-06T20:45:24.102Z,10.110000
2022-10-06T20:50:25.683Z,10.155556
2022-10-06T20:55:28.200Z,10.155556
2022-10-06T21:00:19.075Z,10.000000
2022-10-06T21:05:24.172Z,9.820000
2022-10-06T21:10:25.385Z,9.766667
2022-10-06T21:15:24.107Z,9.750000
2022-10-06T21:20:19.708Z,9.633333
2022-10-06T21:25:24.163Z,9.600000
2022-10-06T21:30:25.957Z,9.737500
2022-10-06T21:35:29.081Z,10.023077
2022-10-06T21:40:20.173Z,10.422222
2022-10-06T21:45:24.979Z,11.028571
2022-10-06T21:50:26.345Z,11.400000
2022-10-06T21:55:24.497Z,11.563636
2022-10-06T22:00:20.570Z,11.544444
2022-10-06T22:05:24.641Z,11.355556
2022-10-06T22:10:26.763Z,11.163636
2022-10-06T22:15:29.940Z,11.083333
2022-10-06T22:20:21.486Z,11.000000
2022-10-06T22:25:24.569Z,10.940000
2022-10-06T22:30:24.708Z,10.712500
2022-10-06T22:35:24.966Z,10.436364
2022-10-06T22:40:21.748Z,10.300000
2022-10-06T22:45:25.055Z,10.322222
2022-10-06T22:50:29.125Z,10.609091
2022-10-06T22:55:19.116Z,10.790909
2022-10-06T23:00:25.036Z,10.742857
2022-10-06T23:05:25.367Z,10.600000
2022-10-06T23:10:24.941Z,10.500000
2022-10-06T23:15:19.584Z,10.583333
2022-10-06T23:20:24.990Z,10.750000
2022-10-06T23:25:27.375Z,10.953846
2022-10-06T23:30:25.016Z,11.075000
2022-10-06T23:35:20.057Z,11.180000
2022-10-06T23:40:23.048Z,11.175000
2022-10-06T23:45:26.528Z,11.100000
2022-10-06T23:50:29.420Z,11.100000
2022-10-06T23:55:20.495Z,11.100000
